Terminal Aerodrome Forecast
Issued by NWS

Home | Current Version | Previous Version | Text Only | Print | Product List | Glossary On
Versions: 1 2 3 4 5 6 7 8 9 10 11 12 13 14 15
000
FTUS43 KGRR 281100
TAFBTL
TAF
KBTL 281140Z 2812/2912 15005KT P6SM SCT150
     FM281500 16010KT P6SM BKN150
     FM290300 16012KT 6SM BR OVC020 WS020/18050KT
     FM290600 16014G20KT 3SM -FZRAPL OVC012 WS020/20050KT
     FM291000 17014G20KT 3SM -FZRAPL OVC009=

USA.gov is the U.S. government's official web portal to all federal, state and local government web resources and services.